Time;durP1;ratioP1;P1;durP2;ratioP2;P2;SDS_P1;SDS_P2;PMS_P1;PMS_P2;Temp;Humidity;BMP_temperature;BMP_pressure;BME280_temperature;BME280_humidity;BME280_pressure;Samples;Min_cycle;Max_cycle;Signal;HPM_P1;HPM_P2
2023/05/05 00:02:25;;;;;;;1.10;1.10;;;;;;;22.10;38.83;101452.56;5074052;28;20082;-65
2023/05/05 00:04:51;;;;;;;1.33;1.33;;;;;;;21.73;39.56;101448.47;5056118;28;20035;-65
2023/05/05 00:07:16;;;;;;;1.20;1.20;;;;;;;22.20;38.58;101445.09;5074419;28;20009;-67
2023/05/05 00:09:42;;;;;;;1.27;1.27;;;;;;;21.86;39.57;101447.00;5073902;28;20494;-66
2023/05/05 00:12:07;;;;;;;1.80;1.70;;;;;;;21.90;40.02;101450.81;5074117;28;20025;-67
2023/05/05 00:14:33;;;;;;;1.63;1.63;;;;;;;22.18;39.30;101450.03;5073664;28;20033;-66
2023/05/05 00:16:58;;;;;;;1.52;1.52;;;;;;;22.31;39.01;101454.03;5073522;28;20479;-65
2023/05/05 00:19:23;;;;;;;1.75;1.65;;;;;;;22.53;38.46;101440.66;5073324;28;20020;-66
2023/05/05 00:21:49;;;;;;;1.90;1.80;;;;;;;22.49;38.56;101440.41;5072857;28;20061;-67
2023/05/05 00:24:14;;;;;;;1.60;1.60;;;;;;;22.63;38.03;101444.16;5073954;28;20055;-66
2023/05/05 00:26:39;;;;;;;1.52;1.52;;;;;;;22.42;38.30;101442.69;5088094;28;20025;-66
2023/05/05 00:29:05;;;;;;;3.65;3.47;;;;;;;22.41;38.98;101440.22;5073530;28;20032;-66
2023/05/05 00:31:30;;;;;;;20.88;19.42;;;;;;;22.70;38.26;101430.91;5065708;28;20052;-66
2023/05/05 00:33:56;;;;;;;22.88;21.60;;;;;;;22.50;39.09;101438.50;5074204;28;20035;-65
2023/05/05 00:36:21;;;;;;;15.50;14.70;;;;;;;22.91;37.65;101436.16;5071524;28;20029;-64
2023/05/05 00:38:47;;;;;;;3.58;3.42;;;;;;;22.57;38.35;101420.66;5073892;28;20043;-66
2023/05/05 00:41:12;;;;;;;4.32;4.13;;;;;;;22.67;38.38;101425.19;5074051;28;20361;-66
2023/05/05 00:43:37;;;;;;;7.10;6.78;;;;;;;22.19;39.45;101418.81;5055156;28;20032;-66
2023/05/05 00:46:23;;;;;;;3.97;3.78;;;;;;;22.83;38.96;101425.84;5074264;28;20461;-66
2023/05/05 00:48:49;;;;;;;5.53;5.25;;;;;;;22.22;39.52;101422.88;5072374;28;20055;-66
2023/05/05 00:51:16;;;;;;;24.25;22.95;;;;;;;22.65;38.58;101424.66;5073916;28;20444;-67
2023/05/05 00:53:43;;;;;;;169.90;160.05;;;;;;;22.54;38.84;101431.34;5075202;28;20552;-65
2023/05/05 00:56:11;;;;;;;13.30;12.60;;;;;;;22.46;38.85;101423.75;5074653;28;20157;-67
2023/05/05 00:58:38;;;;;;;8.68;8.27;;;;;;;21.84;40.26;101432.78;5074229;28;20492;-65
2023/05/05 01:01:03;;;;;;;6.80;6.50;;;;;;;22.06;40.57;101437.81;5075826;28;20024;-68
2023/05/05 01:03:29;;;;;;;11.45;10.85;;;;;;;21.55;41.08;101453.75;5074994;28;20044;-65
2023/05/05 01:06:00;;;;;;;9.93;9.43;;;;;;;21.97;40.58;101429.41;5074957;28;20043;-66
2023/05/05 01:08:55;;;;;;;63.38;59.92;;;;;;;21.62;41.46;101432.41;5055340;28;20040;-64
2023/05/05 01:11:29;;;;;;;65.90;62.30;;;;;;;22.47;39.43;101425.38;5073180;28;20029;-66
2023/05/05 01:14:09;;;;;;;53.85;50.92;;;;;;;21.70;41.33;101426.28;5073535;28;20103;-66
2023/05/05 01:16:40;;;;;;;38.00;35.97;;;;;;;21.94;41.23;101413.56;5073465;28;20041;-66
2023/05/05 01:19:11;;;;;;;15.48;14.68;;;;;;;21.79;40.88;101413.66;5073935;28;20512;-67
2023/05/05 01:21:45;;;;;;;10.68;10.18;;;;;;;22.56;39.54;101412.69;5073601;28;20090;-65
2023/05/05 01:24:29;;;;;;;92.85;87.13;;;;;;;22.30;39.79;101419.53;5073290;28;20032;-66
2023/05/05 01:27:33;;;;;;;9.60;9.10;;;;;;;22.02;41.01;101423.06;5072656;28;20408;-65
2023/05/05 01:30:15;;;;;;;2.25;2.15;;;;;;;22.07;40.69;101417.56;4971852;28;20357;-67
2023/05/05 01:32:49;;;;;;;2.83;2.72;;;;;;;21.24;42.68;101424.97;4954915;28;20101;-64
2023/05/05 01:35:24;;;;;;;4.55;4.35;;;;;;;22.24;40.36;101423.44;4971753;28;20407;-65
2023/05/05 01:38:08;;;;;;;9.30;8.80;;;;;;;22.21;40.23;101426.75;4971513;28;20094;-66
2023/05/05 01:40:42;;;;;;;12.05;11.45;;;;;;;22.21;40.66;101416.59;4971712;28;20121;-65
2023/05/05 01:43:11;;;;;;;14.23;13.52;;;;;;;22.05;41.23;101419.78;4971906;28;20023;-66
2023/05/05 01:45:40;;;;;;;9.18;8.48;;;;;;;21.90;41.61;101437.13;4964056;28;20041;-65
2023/05/05 01:48:08;;;;;;;1.13;1.13;;;;;;;21.96;41.15;101443.38;4971094;28;20050;-67
2023/05/05 01:50:34;;;;;;;1.20;1.20;;;;;;;22.36;39.62;101437.56;4972333;28;20112;-65
2023/05/05 01:53:00;;;;;;;1.30;1.30;;;;;;;22.15;39.91;101436.91;4980726;28;20531;-65
2023/05/05 01:55:27;;;;;;;1.20;1.20;;;;;;;22.45;39.86;101435.81;4971682;28;20441;-67
2023/05/05 01:57:55;;;;;;;1.88;1.77;;;;;;;22.33;39.93;101433.47;4971139;28;20031;-66
2023/05/05 02:00:23;;;;;;;2.53;2.42;;;;;;;22.18;40.69;101446.47;4970882;28;20124;-64
2023/05/05 02:02:50;;;;;;;15.02;13.90;;;;;;;22.31;40.49;101449.34;4975478;28;20432;-64
2023/05/05 02:05:20;;;;;;;6.72;6.43;;;;;;;22.31;39.96;101449.34;5072486;28;20044;-66
2023/05/05 02:07:48;;;;;;;7.00;6.70;;;;;;;22.20;40.35;101439.63;5071954;28;20037;-66
2023/05/05 02:10:13;;;;;;;2.75;2.65;;;;;;;22.19;40.68;101450.88;5072482;28;20131;-64
2023/05/05 02:12:41;;;;;;;5.38;5.13;;;;;;;22.30;40.58;101449.66;5071960;28;20036;-63
2023/05/05 02:15:09;;;;;;;3.00;2.90;;;;;;;21.97;41.21;101454.06;5070824;28;20037;-66
2023/05/05 02:17:35;;;;;;;4.43;4.22;;;;;;;22.04;41.10;101464.66;5071590;28;20040;-64
2023/05/05 02:20:02;;;;;;;4.68;4.47;;;;;;;21.89;41.92;101464.78;5071457;28;20488;-65
2023/05/05 02:22:28;;;;;;;3.13;3.03;;;;;;;21.87;42.29;101461.53;5054236;28;20111;-64
2023/05/05 02:24:53;;;;;;;1.15;1.15;;;;;;;22.02;41.99;101445.78;5071797;28;20097;-66
2023/05/05 02:27:21;;;;;;;6.13;5.82;;;;;;;21.94;44.53;101468.28;5071726;28;20036;-66
2023/05/05 02:29:50;;;;;;;9.02;8.57;;;;;;;21.19;46.29;101471.47;5053260;28;20040;-66
2023/05/05 02:32:21;;;;;;;9.27;8.77;;;;;;;21.09;47.41;101464.09;5071579;28;20043;-66
2023/05/05 02:34:48;;;;;;;;;;;;;;;22.04;45.90;101453.72;5071760;28;20032;-64
2023/05/05 02:37:18;;;;;;;62.70;57.88;;;;;;;21.94;45.49;101446.41;5072359;28;19912;-65
2023/05/05 02:39:57;;;;;;;8.73;8.32;;;;;;;21.71;46.63;101447.09;5071826;28;20181;-66
2023/05/05 02:42:27;;;;;;;10.13;9.63;;;;;;;21.71;47.03;101444.34;5071742;28;20037;-65
2023/05/05 02:44:56;;;;;;;7.43;7.05;;;;;;;21.75;47.25;101442.69;5052402;28;20503;-66
2023/05/05 02:47:22;;;;;;;2.38;2.28;;;;;;;21.80;48.22;101445.38;5071602;28;20518;-65
2023/05/05 02:49:47;;;;;;;2.10;2.00;;;;;;;21.68;49.10;101448.47;5071102;28;20020;-66
2023/05/05 02:52:13;;;;;;;2.20;2.10;;;;;;;21.96;48.37;101446.94;5072148;28;20028;-67
2023/05/05 02:54:39;;;;;;;1.80;1.70;;;;;;;21.56;48.23;101450.75;5071816;28;20037;-67
2023/05/05 02:57:04;;;;;;;32.63;30.85;;;;;;;21.54;48.28;101450.19;5071575;28;20049;-68
2023/05/05 02:59:33;;;;;;;28.73;27.17;;;;;;;21.57;48.89;101446.09;5071508;28;20040;-67
2023/05/05 03:02:16;;;;;;;2.22;2.13;;;;;;;21.62;49.48;101444.13;5071506;28;20404;-66
2023/05/05 03:04:48;;;;;;;62.10;58.75;;;;;;;21.63;50.15;101448.53;5071474;28;20107;-67
2023/05/05 03:07:41;;;;;;;154.90;146.43;;;;;;;22.06;49.27;101440.56;5072144;28;20017;-67
2023/05/05 03:10:15;;;;;;;76.88;72.65;;;;;;;21.66;50.59;101447.94;5067812;28;20072;-66
2023/05/05 03:12:47;;;;;;;63.67;60.15;;;;;;;21.45;49.70;101445.63;5070791;28;20400;-68
2023/05/05 03:15:14;;;;;;;53.03;50.13;;;;;;;21.40;50.78;101451.13;5071164;28;20048;-66
2023/05/05 03:17:41;;;;;;;32.53;30.75;;;;;;;21.28;49.83;101456.94;5071054;28;20032;-67
2023/05/05 03:20:09;;;;;;;28.25;26.75;;;;;;;21.24;50.34;101452.28;5052820;28;20040;-66
2023/05/05 03:22:36;;;;;;;19.00;18.02;;;;;;;21.17;51.98;101452.59;5071612;28;20017;-65
2023/05/05 03:25:02;;;;;;;14.77;13.98;;;;;;;21.20;51.36;101435.66;5071296;28;20149;-66
2023/05/05 03:27:27;;;;;;;16.40;15.50;;;;;;;21.06;51.73;101418.22;5071236;28;20029;-66
2023/05/05 03:29:53;;;;;;;21.05;19.95;;;;;;;21.35;49.72;101429.25;5071104;28;20389;-66
2023/05/05 03:32:19;;;;;;;32.67;30.90;;;;;;;21.22;51.73;101435.34;5070997;28;20044;-65
2023/05/05 03:34:44;;;;;;;30.58;28.92;;;;;;;21.15;51.20;101440.31;5071075;28;20059;-66
2023/05/05 03:37:09;;;;;;;19.10;18.10;;;;;;;20.97;52.23;101439.00;5071939;28;20059;-65
2023/05/05 03:39:35;;;;;;;8.50;8.10;;;;;;;20.92;52.58;101449.94;5071057;28;20384;-66
2023/05/05 03:42:00;;;;;;;5.95;5.65;;;;;;;20.93;51.69;101448.84;5070529;28;20044;-67
2023/05/05 03:44:26;;;;;;;2.88;2.78;;;;;;;20.85;51.67;101455.69;5064282;28;20369;-66
2023/05/05 03:46:51;;;;;;;6.05;5.75;;;;;;;20.91;52.44;101468.25;5050905;28;20036;-66
2023/05/05 03:49:16;;;;;;;46.40;42.50;;;;;;;20.78;52.11;101468.84;5051373;28;20408;-65
2023/05/05 03:51:42;;;;;;;33.85;32.03;;;;;;;20.84;51.32;101477.84;5050832;28;20029;-64
2023/05/05 03:54:07;;;;;;;118.45;111.90;;;;;;;20.38;53.62;101476.28;5050764;28;20331;-66
2023/05/05 03:56:33;;;;;;;85.35;80.63;;;;;;;20.56;53.17;101478.47;5053705;28;20036;-65
2023/05/05 03:58:58;;;;;;;26.42;25.02;;;;;;;20.66;52.56;101481.16;5054556;28;20048;-66
2023/05/05 04:01:23;;;;;;;4.90;4.70;;;;;;;20.66;53.96;101487.44;5054637;28;20032;-65
2023/05/05 04:03:49;;;;;;;13.80;13.10;;;;;;;20.54;53.30;101488.84;5061867;28;20063;-68
2023/05/05 04:06:14;;;;;;;26.73;25.30;;;;;;;20.53;53.58;101493.47;5057312;28;20562;-68
2023/05/05 04:08:40;;;;;;;30.00;28.40;;;;;;;20.56;52.68;101500.31;5054081;28;20029;-66
2023/05/05 04:11:05;;;;;;;15.00;14.23;;;;;;;20.56;53.38;101511.22;5063219;28;20032;-66
2023/05/05 04:13:31;;;;;;;7.70;7.32;;;;;;;20.39;54.33;101516.97;5074671;28;20020;-67
2023/05/05 04:15:58;;;;;;;7.57;7.18;;;;;;;20.77;52.70;101508.19;5074052;28;20431;-66
2023/05/05 04:18:24;;;;;;;44.33;40.63;;;;;;;20.75;53.24;101512.28;5074203;28;20040;-66
2023/05/05 04:20:49;;;;;;;11.73;11.13;;;;;;;20.28;53.84;101515.34;5073981;28;20037;-66
2023/05/05 04:23:14;;;;;;;14.18;13.48;;;;;;;20.62;52.76;101512.84;5074025;28;20044;-66
2023/05/05 04:25:42;;;;;;;16.88;16.00;;;;;;;19.93;55.19;101507.91;5074217;28;20025;-66
2023/05/05 04:28:07;;;;;;;21.52;20.35;;;;;;;20.58;52.12;101498.13;5074327;28;20039;-66
2023/05/05 04:30:33;;;;;;;17.73;16.80;;;;;;;20.79;51.75;101500.53;5074567;28;20432;-65
2023/05/05 04:32:58;;;;;;;14.40;13.65;;;;;;;20.36;52.35;101511.25;5056116;28;20098;-65
2023/05/05 04:35:24;;;;;;;10.20;9.70;;;;;;;20.87;51.36;101521.81;5056111;28;20372;-65
2023/05/05 04:37:49;;;;;;;13.32;12.63;;;;;;;20.54;52.08;101529.81;5074304;28;20047;-66
2023/05/05 04:40:15;;;;;;;13.38;12.68;;;;;;;20.51;51.85;101522.97;5074674;28;20037;-66
2023/05/05 04:42:40;;;;;;;18.98;17.98;;;;;;;20.13;53.69;101534.38;5073556;28;20040;-66
2023/05/05 04:45:07;;;;;;;22.35;21.15;;;;;;;20.08;54.41;101537.13;5073332;28;20033;-66
2023/05/05 04:47:36;;;;;;;27.20;25.73;;;;;;;20.46;53.50;101550.25;5073489;28;20029;-66
2023/05/05 04:50:01;;;;;;;27.30;25.85;;;;;;;20.10;55.17;101549.41;5073346;28;20105;-64
2023/05/05 04:52:27;;;;;;;27.10;25.63;;;;;;;20.14;54.94;101546.97;5074222;28;20020;-66
2023/05/05 04:54:52;;;;;;;29.15;27.55;;;;;;;20.63;51.90;101537.16;5055068;28;20505;-65
2023/05/05 04:57:17;;;;;;;14.63;13.85;;;;;;;20.79;51.91;101533.31;5073471;28;20024;-66
2023/05/05 04:59:43;;;;;;;24.27;22.98;;;;;;;20.76;52.10;101538.50;5073134;28;20032;-66
2023/05/05 05:02:08;;;;;;;9.65;9.15;;;;;;;20.95;51.80;101539.56;5073553;28;20497;-66
2023/05/05 05:04:34;;;;;;;6.05;5.75;;;;;;;21.10;51.21;101539.56;5073977;28;20036;-66
2023/05/05 05:07:00;;;;;;;47.13;43.30;;;;;;;20.97;51.25;101540.13;5054770;28;20037;-66
2023/05/05 05:09:25;;;;;;;19.83;18.77;;;;;;;20.87;51.74;101554.59;5073107;28;20037;-66
2023/05/05 05:11:51;;;;;;;24.13;22.85;;;;;;;20.79;51.92;101551.63;5054832;28;20519;-68
2023/05/05 05:14:16;;;;;;;13.68;12.98;;;;;;;20.90;51.75;101548.59;5073570;28;20043;-67
2023/05/05 05:16:41;;;;;;;9.35;8.85;;;;;;;20.95;52.07;101555.97;5080003;28;20037;-66
2023/05/05 05:19:07;;;;;;;20.02;18.98;;;;;;;20.45;54.25;101561.47;5093863;28;20533;-67
2023/05/05 05:21:32;;;;;;;23.52;22.27;;;;;;;21.18;51.50;101565.50;5093276;28;20044;-66
2023/05/05 05:23:58;;;;;;;20.58;19.50;;;;;;;21.13;51.68;101562.78;5093396;28;20093;-66
2023/05/05 05:26:23;;;;;;;13.98;13.27;;;;;;;20.99;52.28;101554.31;5093232;28;20384;-65
2023/05/05 05:28:48;;;;;;;9.52;9.02;;;;;;;21.05;52.49;101563.34;5092683;28;20024;-66
2023/05/05 05:31:14;;;;;;;9.30;8.80;;;;;;;21.29;51.27;101558.88;5093258;28;20059;-66
2023/05/05 05:33:39;;;;;;;5.85;5.55;;;;;;;21.28;51.73;101562.75;5079200;28;20033;-67
2023/05/05 05:36:05;;;;;;;4.97;4.78;;;;;;;21.39;51.47;101564.31;5052437;28;20036;-66
2023/05/05 05:38:30;;;;;;;6.35;6.05;;;;;;;21.27;52.61;101566.56;5058497;28;20075;-66
2023/05/05 05:40:55;;;;;;;11.18;10.57;;;;;;;21.48;51.94;101568.13;5071573;28;20094;-67
2023/05/05 05:43:21;;;;;;;12.15;11.55;;;;;;;21.77;50.52;101566.34;5073458;28;20024;-67
2023/05/05 05:45:46;;;;;;;11.73;11.13;;;;;;;21.74;50.90;101565.00;5054344;28;20028;-66
2023/05/05 05:48:12;;;;;;;12.10;11.50;;;;;;;21.52;51.57;101563.75;5073318;28;20039;-67
2023/05/05 05:50:37;;;;;;;13.35;12.65;;;;;;;21.73;51.12;101568.00;5073577;28;20021;-66
2023/05/05 05:53:03;;;;;;;15.85;15.05;;;;;;;21.47;52.27;101578.25;5074640;28;20066;-65
2023/05/05 05:55:28;;;;;;;18.00;17.05;;;;;;;21.49;52.82;101580.69;5074995;28;20027;-68
2023/05/05 05:57:53;;;;;;;23.05;21.83;;;;;;;21.90;51.85;101584.09;5073830;28;20102;-67
2023/05/05 06:00:20;;;;;;;30.35;27.75;;;;;;;21.37;53.76;101577.47;5072562;28;20028;-67
2023/05/05 06:02:45;;;;;;;4.13;3.92;;;;;;;21.38;54.82;101584.56;5071229;28;20831;-66
2023/05/05 06:05:50;;;;;;;1.30;1.30;;;;;;;21.86;53.44;101588.53;5072308;28;20025;-66
2023/05/05 06:08:16;;;;;;;24.45;22.70;;;;;;;21.83;54.00;101593.44;5072088;28;20040;-66
2023/05/05 06:10:41;;;;;;;2.90;2.80;;;;;;;21.25;55.50;101596.91;5071811;28;20477;-66
2023/05/05 06:13:07;;;;;;;3.17;3.08;;;;;;;22.05;52.72;101598.53;5072386;28;20031;-66
2023/05/05 06:15:32;;;;;;;4.05;3.85;;;;;;;22.02;53.12;101595.50;5071886;28;20037;-67
2023/05/05 06:17:57;;;;;;;5.22;5.00;;;;;;;22.00;53.08;101593.06;5069502;28;20040;-67
2023/05/05 06:20:23;;;;;;;8.85;8.43;;;;;;;22.17;53.00;101587.22;5053765;28;20028;-67
2023/05/05 06:22:49;;;;;;;6.50;6.20;;;;;;;21.88;54.70;101587.09;5071588;28;20032;-67
2023/05/05 06:25:14;;;;;;;5.55;5.25;;;;;;;21.86;54.56;101594.78;5072205;28;20077;-67
2023/05/05 06:27:40;;;;;;;8.18;7.78;;;;;;;21.82;54.66;101597.28;5071384;28;20028;-67
2023/05/05 06:30:06;;;;;;;5.03;4.82;;;;;;;22.38;53.63;101589.53;5070553;28;20181;-66
2023/05/05 06:32:31;;;;;;;6.07;5.78;;;;;;;21.28;57.35;101590.91;5071382;28;20041;-67
2023/05/05 06:34:57;;;;;;;4.63;4.43;;;;;;;22.66;53.15;101596.19;5071337;28;20476;-67
2023/05/05 06:37:22;;;;;;;7.40;7.03;;;;;;;21.76;55.77;101597.53;5072339;28;20027;-65
2023/05/05 06:39:47;;;;;;;4.90;4.70;;;;;;;21.90;55.06;101601.34;5071537;28;20032;-66
2023/05/05 06:42:13;;;;;;;7.38;6.97;;;;;;;21.94;55.67;101609.78;5071506;28;20032;-67
2023/05/05 06:44:38;;;;;;;12.98;12.27;;;;;;;21.93;55.55;101603.53;5070620;28;20024;-66
2023/05/05 06:47:04;;;;;;;8.38;7.97;;;;;;;22.42;54.72;101600.75;5071272;28;20036;-67
2023/05/05 06:49:29;;;;;;;6.20;5.90;;;;;;;22.36;54.76;101605.44;5053163;28;20071;-67
2023/05/05 06:51:55;;;;;;;5.38;5.15;;;;;;;22.10;55.51;101617.66;5071317;28;20090;-68
2023/05/05 06:54:20;;;;;;;6.47;6.18;;;;;;;22.25;54.42;101606.59;5071222;28;20404;-67
2023/05/05 06:56:46;;;;;;;7.45;7.07;;;;;;;22.66;54.13;101604.41;5070747;28;20048;-66
2023/05/05 06:59:11;;;;;;;6.10;5.80;;;;;;;21.95;56.07;101617.75;5071295;28;20050;-68
2023/05/05 07:01:36;;;;;;;5.13;4.90;;;;;;;22.08;55.55;101613.56;5071695;28;20428;-67
2023/05/05 07:04:02;;;;;;;49.38;46.20;;;;;;;21.99;55.83;101612.53;5071192;28;20173;-67
2023/05/05 07:06:27;;;;;;;35.03;33.13;;;;;;;22.14;55.04;101617.91;5070824;28;20032;-66
2023/05/05 07:08:53;;;;;;;24.73;23.42;;;;;;;22.03;55.00;101619.06;5070867;28;20040;-66
2023/05/05 07:11:18;;;;;;;8.05;7.65;;;;;;;22.08;54.82;101624.50;5071194;28;20090;-66
2023/05/05 07:13:43;;;;;;;27.92;25.10;;;;;;;22.43;54.54;101619.63;5071150;28;20016;-68
2023/05/05 07:16:09;;;;;;;19.83;18.77;;;;;;;22.01;55.06;101618.53;5071623;28;20020;-66
2023/05/05 07:18:34;;;;;;;57.22;54.10;;;;;;;21.86;55.87;101632.31;5070835;28;20040;-67
2023/05/05 07:21:00;;;;;;;68.22;64.47;;;;;;;22.28;55.28;101632.59;5071091;28;20090;-69
2023/05/05 07:23:26;;;;;;;84.85;80.20;;;;;;;22.84;54.40;101638.53;5071092;28;20033;-67
2023/05/05 07:25:51;;;;;;;93.70;88.57;;;;;;;23.53;51.91;101652.66;5063166;28;20024;-66
2023/05/05 07:28:16;;;;;;;83.78;79.22;;;;;;;22.77;52.18;101655.28;5071749;28;20491;-67
2023/05/05 07:30:42;;;;;;;64.85;61.33;;;;;;;22.52;53.82;101655.47;5074367;28;20578;-67
2023/05/05 07:33:07;;;;;;;52.55;49.67;;;;;;;22.70;53.25;101660.28;5074662;28;20546;-66
2023/05/05 07:35:33;;;;;;;59.70;56.42;;;;;;;22.40;53.66;101658.56;5075064;28;20044;-68
2023/05/05 07:37:58;;;;;;;58.75;55.55;;;;;;;22.72;52.76;101660.00;5075434;28;20668;-67
2023/05/05 07:40:24;;;;;;;64.25;60.75;;;;;;;22.66;51.98;101661.97;5075514;28;20467;-68
2023/05/05 07:42:50;;;;;;;65.75;62.13;;;;;;;22.32;54.65;101666.53;5055788;28;20048;-68
2023/05/05 07:45:16;;;;;;;55.55;52.50;;;;;;;22.95;52.63;101668.31;5067125;28;20188;-68
2023/05/05 07:47:41;;;;;;;57.90;54.72;;;;;;;22.56;52.82;101662.78;5074071;28;20032;-66
2023/05/05 07:50:07;;;;;;;60.00;56.72;;;;;;;22.92;52.48;101666.13;5074357;28;20025;-68
2023/05/05 07:52:32;;;;;;;52.72;49.85;;;;;;;22.55;52.58;101663.91;5074876;28;20028;-66
2023/05/05 07:54:57;;;;;;;59.95;56.67;;;;;;;23.06;51.04;101671.75;5074277;28;20044;-66
2023/05/05 07:57:23;;;;;;;30.58;28.95;;;;;;;23.15;50.87;101673.59;5055215;28;20107;-67
2023/05/05 07:59:48;;;;;;;37.08;35.05;;;;;;;23.55;49.96;101673.22;5074374;28;20024;-68
2023/05/05 08:02:14;;;;;;;10.68;10.18;;;;;;;22.93;51.83;101672.44;5074633;28;20029;-65
2023/05/05 08:04:39;;;;;;;40.40;37.05;;;;;;;23.49;50.77;101679.03;5075498;28;20082;-66
2023/05/05 08:07:04;;;;;;;6.82;6.50;;;;;;;23.90;50.35;101671.97;5075494;28;20036;-67
2023/05/05 08:09:30;;;;;;;8.93;8.50;;;;;;;23.89;49.30;101664.84;5074785;28;20036;-67
2023/05/05 08:11:55;;;;;;;7.47;7.07;;;;;;;23.80;49.10;101671.28;5074447;28;20040;-66
2023/05/05 08:14:21;;;;;;;7.15;6.80;;;;;;;24.20;48.50;101663.38;5074674;28;20025;-66
2023/05/05 08:16:46;;;;;;;6.95;6.65;;;;;;;23.33;51.28;101669.34;5074597;28;20029;-65
2023/05/05 08:19:11;;;;;;;6.03;5.72;;;;;;;23.75;49.50;101663.09;5056271;28;20033;-65
2023/05/05 08:21:38;;;;;;;3.33;3.22;;;;;;;24.31;47.63;101658.56;5073142;28;20068;-67
2023/05/05 08:24:03;;;;;;;4.57;4.38;;;;;;;23.62;50.13;101663.81;5066605;28;20562;-67
2023/05/05 08:26:29;;;;;;;1.65;1.63;;;;;;;24.36;47.37;101661.22;5073940;28;20462;-65
2023/05/05 08:28:59;;;;;;;2.30;2.20;;;;;;;24.08;49.38;101659.41;5067390;28;20036;-67
2023/05/05 08:31:25;;;;;;;6.75;6.30;;;;;;;23.08;48.60;101664.06;5073725;28;20041;-66
2023/05/05 08:33:50;;;;;;;4.25;4.05;;;;;;;24.17;46.77;101655.72;5073060;28;20067;-66
2023/05/05 08:36:16;;;;;;;2.30;2.15;;;;;;;23.40;47.80;101670.66;5073037;28;20040;-66
2023/05/05 08:38:41;;;;;;;0.90;0.90;;;;;;;23.70;46.60;101655.78;5054295;28;20056;-64
2023/05/05 08:41:11;;;;;;;1.10;1.10;;;;;;;22.83;49.73;101661.53;5072305;28;20036;-66
2023/05/05 08:43:37;;;;;;;1.17;1.17;;;;;;;23.70;47.61;101658.50;5071023;28;20020;-67
2023/05/05 08:46:03;;;;;;;1.20;1.20;;;;;;;23.65;47.79;101672.28;5072342;28;20048;-68
2023/05/05 08:48:32;;;;;;;1.40;1.40;;;;;;;23.01;50.13;101680.88;5072893;28;20029;-66
2023/05/05 08:50:58;;;;;;;1.33;1.33;;;;;;;24.02;46.86;101668.81;5070285;28;20028;-67
2023/05/05 08:53:36;;;;;;;1.10;1.10;;;;;;;24.18;47.37;101671.09;5073184;28;20236;-65
2023/05/05 08:56:03;;;;;;;1.85;1.75;;;;;;;24.18;45.36;101675.75;5070727;28;20044;-66
2023/05/05 08:58:30;;;;;;;1.92;1.83;;;;;;;24.96;43.84;101667.72;5073061;28;20052;-67
2023/05/05 09:00:56;;;;;;;1.25;1.25;;;;;;;24.28;45.31;101675.63;5067192;28;20080;-66
2023/05/05 09:03:21;;;;;;;1.50;1.50;;;;;;;24.58;44.72;101677.94;5062537;28;20044;-69
2023/05/05 09:05:47;;;;;;;1.23;1.23;;;;;;;24.77;43.68;101681.50;5062729;28;20381;-66
2023/05/05 09:08:13;;;;;;;1.40;1.40;;;;;;;25.11;42.97;101686.72;5060729;28;20032;-66
2023/05/05 09:10:43;;;;;;;22.55;20.67;;;;;;;24.74;44.01;101689.53;5064977;28;20032;-66
2023/05/05 09:13:08;;;;;;;2.47;2.38;;;;;;;25.39;42.01;101695.84;5069052;28;20044;-68
2023/05/05 09:15:34;;;;;;;1.50;1.50;;;;;;;25.07;42.05;101692.00;5070860;28;20029;-66
2023/05/05 09:18:00;;;;;;;1.40;1.40;;;;;;;25.10;42.12;101699.66;5072458;28;20013;-70
2023/05/05 09:20:34;;;;;;;1.52;1.52;;;;;;;24.74;43.13;101701.38;5052097;28;20207;-67
2023/05/05 09:23:10;;;;;;;2.00;1.90;;;;;;;24.83;42.38;101690.47;5069151;28;20036;-68
2023/05/05 09:25:35;;;;;;;1.40;1.40;;;;;;;25.26;41.67;101692.75;5071053;28;20055;-67
2023/05/05 09:28:10;;;;;;;1.80;1.70;;;;;;;23.44;46.15;101701.88;5070897;28;20037;-65
2023/05/05 09:30:36;;;;;;;1.10;1.10;;;;;;;23.72;45.50;101705.69;5070872;28;20044;-65
2023/05/05 09:33:02;;;;;;;1.60;1.60;;;;;;;24.70;42.62;101700.28;5070637;28;20060;-67
2023/05/05 09:35:46;;;;;;;1.45;1.45;;;;;;;24.50;43.27;101703.34;5067878;28;20158;-67
2023/05/05 09:38:11;;;;;;;1.20;1.20;;;;;;;25.27;42.04;101705.41;5029092;28;20086;-68
2023/05/05 09:40:45;;;;;;;1.88;1.77;;;;;;;25.77;40.76;101695.41;5064365;28;20391;-67
2023/05/05 09:43:10;;;;;;;23.35;21.40;;;;;;;26.24;40.17;101696.13;5063174;28;20060;-66
2023/05/05 09:45:35;;;;;;;3.08;2.97;;;;;;;25.82;40.55;101695.31;5063966;28;20472;-69
2023/05/05 09:48:01;;;;;;;2.67;2.58;;;;;;;26.44;39.88;101701.97;5067109;28;20029;-67
2023/05/05 09:50:29;;;;;;;3.03;2.92;;;;;;;25.81;40.82;101696.41;5062946;28;20021;-66
2023/05/05 09:52:58;;;;;;;3.50;3.38;;;;;;;25.82;40.22;101700.81;5062359;28;20064;-66
2023/05/05 09:55:24;;;;;;;2.88;2.78;;;;;;;25.71;40.29;101691.13;5066149;28;20060;-66
2023/05/05 09:57:50;;;;;;;5.07;4.78;;;;;;;26.13;39.65;101694.69;5063645;28;20121;-66
2023/05/05 10:00:15;;;;;;;0.95;0.95;;;;;;;26.58;38.59;101696.44;5058120;28;20040;-65
2023/05/05 10:02:41;;;;;;;0.90;0.90;;;;;;;26.78;37.91;101693.22;5061615;28;20024;-67
2023/05/05 10:05:11;;;;;;;0.90;0.90;;;;;;;26.15;38.43;101687.75;5061004;28;20037;-67
2023/05/05 10:07:37;;;;;;;;;;;;;;;26.32;39.94;101678.84;5063305;28;20024;-66
2023/05/05 10:10:09;;;;;;;0.80;0.80;;;;;;;26.69;38.49;101684.03;5059697;28;19919;-64
2023/05/05 10:12:36;;;;;;;0.70;0.70;;;;;;;27.25;36.72;101680.72;5066770;28;20072;-68
2023/05/05 10:15:05;;;;;;;7.10;6.75;;;;;;;27.68;36.22;101677.06;5067979;28;20028;-66
2023/05/05 10:17:42;;;;;;;10.70;10.15;;;;;;;27.43;37.65;101679.69;5068053;28;20027;-67
2023/05/05 10:20:09;;;;;;;10.48;9.98;;;;;;;25.84;39.55;101683.97;5049512;28;20037;-67
2023/05/05 10:22:35;;;;;;;9.88;9.38;;;;;;;26.52;37.91;101678.38;5069012;28;20032;-66
2023/05/05 10:25:08;;;;;;;13.90;13.20;;;;;;;27.63;35.87;101673.63;5068796;28;20041;-67
2023/05/05 10:27:41;;;;;;;15.77;14.98;;;;;;;27.70;35.69;101666.50;5070124;28;20067;-66
2023/05/05 10:30:10;;;;;;;12.82;12.13;;;;;;;27.97;34.85;101668.22;5069795;28;20475;-67
2023/05/05 10:32:43;;;;;;;8.68;8.27;;;;;;;27.54;35.47;101667.22;5068736;28;20044;-67
2023/05/05 10:35:10;;;;;;;7.57;7.18;;;;;;;27.92;36.48;101662.00;5068464;28;20033;-66
2023/05/05 10:37:39;;;;;;;4.85;4.65;;;;;;;27.55;35.52;101664.19;5056797;28;20080;-67
2023/05/05 10:40:07;;;;;;;8.15;7.75;;;;;;;27.40;36.25;101663.78;5063193;28;20060;-70
2023/05/05 10:42:32;;;;;;;5.90;5.60;;;;;;;28.01;35.17;101662.88;5049469;28;20036;-69
2023/05/05 10:44:57;;;;;;;7.05;6.72;;;;;;;27.83;35.15;101664.75;5068145;28;20024;-73
2023/05/05 10:47:24;;;;;;;5.63;5.32;;;;;;;27.03;36.85;101658.69;5050151;28;20074;-73
2023/05/05 10:50:02;;;;;;;6.00;5.70;;;;;;;27.20;36.87;101651.31;5067497;28;20047;-73
2023/05/05 10:52:55;;;;;;;21.10;20.00;;;;;;;26.99;38.67;101649.41;5067519;28;20044;-74
2023/05/05 10:55:42;;;;;;;12.13;11.52;;;;;;;27.45;38.33;101647.88;5069969;28;20054;-74
2023/05/05 10:58:07;;;;;;;20.10;18.67;;;;;;;26.63;38.33;101639.22;5071656;28;20372;-72
2023/05/05 11:00:38;;;;;;;5.35;5.13;;;;;;;25.94;39.99;101636.94;5067249;28;20044;-72
2023/05/05 11:03:15;;;;;;;8.30;7.90;;;;;;;26.53;40.14;101645.00;5066992;28;20491;-68
2023/05/05 11:06:19;;;;;;;10.23;9.73;;;;;;;25.91;41.18;101648.56;5067195;28;20528;-68
2023/05/05 11:08:45;;;;;;;14.13;13.40;;;;;;;24.83;44.35;101641.81;4961752;28;20403;-68
2023/05/05 11:11:11;;;;;;;5.85;5.57;;;;;;;25.41;42.88;101642.19;4947041;29;20035;-68
2023/05/05 11:13:40;;;;;;;5.82;5.53;;;;;;;24.10;51.41;101638.78;4946604;28;20044;-67
2023/05/05 11:16:42;;;;;;;6.65;6.35;;;;;;;23.19;51.92;101652.69;4946589;29;20203;-67
2023/05/05 11:19:43;;;;;;;10.15;9.65;;;;;;;22.70;56.48;101660.28;4934981;29;20090;-67
2023/05/05 11:22:09;;;;;;;9.95;9.45;;;;;;;21.78;59.77;101663.75;4947070;29;20118;-65
2023/05/05 11:24:35;;;;;;;8.88;8.48;;;;;;;21.57;60.68;101660.28;4962024;28;20125;-67